Time;durP1;ratioP1;P1;durP2;ratioP2;P2;SDS_P1;SDS_P2;PMS_P1;PMS_P2;Temp;Humidity;BMP_temperature;BMP_pressure;BME280_temperature;BME280_humidity;BME280_pressure;Samples;Min_cycle;Max_cycle;Signal;HPM_P1;HPM_P2
2022/03/04 00:00:07;;;;;;;1.80;1.70;;;4.60;99.90;;;;;;5030335;28;20208;-68
2022/03/04 00:02:34;;;;;;;2.20;2.10;;;4.60;99.90;;;;;;5028735;28;21834;-65
2022/03/04 00:05:01;;;;;;;1.77;1.67;;;4.60;99.90;;;;;;5027293;28;20221;-67
2022/03/04 00:07:28;;;;;;;1.97;1.87;;;4.60;99.90;;;;;;5030073;28;20203;-64
2022/03/04 00:09:55;;;;;;;1.83;1.70;;;4.60;99.90;;;;;;5026621;28;20232;-65
2022/03/04 00:12:22;;;;;;;2.00;1.90;;;4.50;99.90;;;;;;5032703;28;20410;-66
2022/03/04 00:14:49;;;;;;;1.95;1.85;;;4.50;99.90;;;;;;5032185;28;20301;-67
2022/03/04 00:17:18;;;;;;;1.80;1.70;;;4.50;99.90;;;;;;5032244;28;20223;-65
2022/03/04 00:19:45;;;;;;;2.00;1.90;;;4.50;99.90;;;;;;5029267;28;20656;-66
2022/03/04 00:22:12;;;;;;;2.00;1.90;;;4.40;99.90;;;;;;5032174;28;20263;-66
2022/03/04 00:24:39;;;;;;;1.85;1.75;;;4.40;99.90;;;;;;5027975;28;20309;-66
2022/03/04 00:27:06;;;;;;;1.88;1.77;;;4.40;99.90;;;;;;5028462;28;20675;-68
2022/03/04 00:29:33;;;;;;;2.00;1.90;;;4.50;99.90;;;;;;5034773;28;20272;-66
2022/03/04 00:32:00;;;;;;;2.03;1.92;;;4.40;99.90;;;;;;5035359;28;20232;-67
2022/03/04 00:34:28;;;;;;;1.70;1.60;;;4.30;99.90;;;;;;5036075;28;20225;-64
2022/03/04 00:36:55;;;;;;;1.90;1.80;;;4.30;99.90;;;;;;5027464;28;20248;-67
2022/03/04 00:39:23;;;;;;;1.88;1.75;;;4.30;99.90;;;;;;5030297;28;20248;-67
2022/03/04 00:41:50;;;;;;;1.80;1.70;;;4.20;99.90;;;;;;5021275;28;20319;-66
2022/03/04 00:44:17;;;;;;;1.75;1.65;;;4.10;99.90;;;;;;5013048;28;20288;-67
2022/03/04 00:46:43;;;;;;;2.17;2.07;;;4.10;99.90;;;;;;5016690;28;20243;-64
2022/03/04 00:49:10;;;;;;;2.30;2.10;;;4.10;99.90;;;;;;5025682;28;20228;-66
2022/03/04 00:51:39;;;;;;;2.17;2.07;;;4.00;99.90;;;;;;5029367;28;20229;-67
2022/03/04 00:54:06;;;;;;;2.00;1.90;;;4.10;99.90;;;;;;5026700;28;20209;-67
2022/03/04 00:56:33;;;;;;;2.00;1.90;;;4.00;99.90;;;;;;5013617;28;20215;-66
2022/03/04 00:59:00;;;;;;;1.83;1.73;;;4.10;99.90;;;;;;5012911;28;20237;-67
2022/03/04 01:01:27;;;;;;;1.80;1.70;;;4.00;99.90;;;;;;5012731;28;20308;-65
2022/03/04 01:03:54;;;;;;;1.85;1.75;;;3.90;99.90;;;;;;5012458;28;20201;-68
2022/03/04 01:06:21;;;;;;;1.90;1.80;;;3.90;99.90;;;;;;5014106;28;20221;-67
2022/03/04 01:08:49;;;;;;;2.10;2.00;;;3.90;99.90;;;;;;5016697;28;20296;-65
2022/03/04 01:11:16;;;;;;;1.75;1.65;;;3.80;99.90;;;;;;5016038;28;20260;-67
2022/03/04 01:13:43;;;;;;;1.55;1.52;;;3.80;99.90;;;;;;5029364;28;20220;-65
2022/03/04 01:16:10;;;;;;;1.60;1.50;;;3.80;99.90;;;;;;5027878;28;20285;-67
2022/03/04 01:18:36;;;;;;;1.85;1.75;;;3.80;99.90;;;;;;5018816;28;20690;-67
2022/03/04 01:21:04;;;;;;;1.58;1.58;;;3.70;99.90;;;;;;5014906;28;20268;-67
2022/03/04 01:23:30;;;;;;;2.00;1.90;;;3.70;99.90;;;;;;5014684;28;20272;-67
2022/03/04 01:25:59;;;;;;;1.95;1.85;;;3.60;99.90;;;;;;5014493;28;20316;-66
2022/03/04 01:28:26;;;;;;;2.00;1.90;;;3.60;99.90;;;;;;5014427;28;20263;-67
2022/03/04 01:30:53;;;;;;;1.70;1.60;;;3.50;99.90;;;;;;5014028;28;21004;-66
2022/03/04 01:33:20;;;;;;;2.15;2.00;;;3.50;99.90;;;;;;5014377;28;20189;-67
2022/03/04 01:35:47;;;;;;;2.05;1.95;;;3.40;99.90;;;;;;5014570;28;20292;-67
2022/03/04 01:38:15;;;;;;;2.00;1.90;;;3.30;99.90;;;;;;5023153;28;20606;-67
2022/03/04 01:40:42;;;;;;;1.75;1.65;;;3.30;99.90;;;;;;5038108;28;20247;-66
2022/03/04 01:43:10;;;;;;;1.83;1.73;;;3.20;99.90;;;;;;5037852;28;20283;-67
2022/03/04 01:45:37;;;;;;;1.97;1.87;;;3.20;99.90;;;;;;5037503;28;20274;-67
2022/03/04 01:48:04;;;;;;;1.90;1.80;;;3.20;99.90;;;;;;5038808;28;20267;-66
2022/03/04 01:50:31;;;;;;;2.00;1.90;;;3.10;99.90;;;;;;5038685;28;20258;-66
2022/03/04 01:52:58;;;;;;;1.92;1.83;;;3.10;99.90;;;;;;5045774;28;20615;-67
2022/03/04 01:55:25;;;;;;;1.90;1.80;;;3.10;99.90;;;;;;5039831;28;20200;-67
2022/03/04 01:57:52;;;;;;;1.90;1.80;;;3.00;99.90;;;;;;5036250;28;20295;-66
2022/03/04 02:00:21;;;;;;;2.10;2.00;;;3.00;99.90;;;;;;5036528;28;20213;-67
2022/03/04 02:02:48;;;;;;;1.90;1.80;;;3.00;99.90;;;;;;5036808;28;20239;-66
2022/03/04 02:05:15;;;;;;;1.98;1.88;;;3.00;99.90;;;;;;5036102;28;20316;-67
2022/03/04 02:07:42;;;;;;;2.10;2.00;;;2.90;99.90;;;;;;5035731;28;20299;-66
2022/03/04 02:10:10;;;;;;;1.80;1.70;;;2.80;99.90;;;;;;5036073;28;20280;-66
2022/03/04 02:12:37;;;;;;;2.17;2.08;;;2.80;99.90;;;;;;5035599;28;20307;-67
2022/03/04 02:15:05;;;;;;;2.08;1.98;;;2.70;99.90;;;;;;5035519;28;20754;-66
2022/03/04 02:17:34;;;;;;;1.90;1.80;;;2.60;99.90;;;;;;5036642;28;20209;-67
2022/03/04 02:20:03;;;;;;;2.00;1.90;;;2.60;99.90;;;;;;5035737;28;20581;-66
2022/03/04 02:22:32;;;;;;;1.90;1.80;;;2.60;99.90;;;;;;5035814;28;20227;-67
2022/03/04 02:25:00;;;;;;;2.00;1.90;;;2.60;99.90;;;;;;5050261;28;20224;-66
2022/03/04 02:27:27;;;;;;;2.00;1.90;;;2.50;99.90;;;;;;5039719;28;20212;-66
2022/03/04 02:29:54;;;;;;;2.20;2.10;;;2.50;99.90;;;;;;5035862;28;20223;-66
2022/03/04 02:32:21;;;;;;;2.05;1.95;;;2.50;99.90;;;;;;5068430;22;20314;-62
2022/03/04 02:34:48;;;;;;;2.10;2.00;;;2.40;99.90;;;;;;5071893;28;20243;-64
2022/03/04 02:37:18;;;;;;;2.00;1.90;;;2.40;99.90;;;;;;5063741;28;20243;-63
2022/03/04 02:39:46;;;;;;;2.03;1.92;;;2.40;99.90;;;;;;5072818;28;20282;-64
2022/03/04 02:42:13;;;;;;;1.80;1.70;;;2.40;99.90;;;;;;5073973;28;20223;-64
2022/03/04 02:44:40;;;;;;;2.00;1.90;;;2.40;99.90;;;;;;5073589;28;20253;-64
2022/03/04 02:47:07;;;;;;;2.03;1.92;;;2.50;99.90;;;;;;5073572;28;20225;-64
2022/03/04 02:49:34;;;;;;;1.90;1.80;;;2.50;99.90;;;;;;5073649;28;20234;-63
2022/03/04 02:52:00;;;;;;;1.88;1.77;;;2.50;99.90;;;;;;5081696;28;20254;-63
2022/03/04 02:54:27;;;;;;;2.10;2.00;;;2.40;99.90;;;;;;5081589;28;20254;-62
2022/03/04 02:56:56;;;;;;;1.92;1.83;;;2.40;99.90;;;;;;5080823;28;20200;-63
2022/03/04 02:59:22;;;;;;;2.00;1.90;;;2.50;99.90;;;;;;5077112;28;20203;-62
2022/03/04 03:01:49;;;;;;;1.92;1.83;;;2.50;99.90;;;;;;5073796;28;20324;-63
2022/03/04 03:04:18;;;;;;;1.98;1.88;;;2.50;99.90;;;;;;5072918;28;20215;-65
2022/03/04 03:06:45;;;;;;;1.98;1.88;;;2.40;99.90;;;;;;5073139;28;20223;-64
2022/03/04 03:09:12;;;;;;;2.20;2.10;;;2.40;99.90;;;;;;5073935;28;20302;-62
2022/03/04 03:11:39;;;;;;;1.90;1.80;;;2.40;99.90;;;;;;5073156;28;20262;-64
2022/03/04 03:14:07;;;;;;;2.00;1.90;;;2.30;99.90;;;;;;5073500;28;20247;-63
2022/03/04 03:16:34;;;;;;;1.90;1.80;;;2.40;99.90;;;;;;5073650;28;20205;-63
2022/03/04 03:19:01;;;;;;;1.80;1.70;;;2.30;99.90;;;;;;5076857;28;20242;-64
2022/03/04 03:21:28;;;;;;;2.00;1.90;;;2.30;99.90;;;;;;5075787;28;20284;-64
2022/03/04 03:23:55;;;;;;;2.10;1.90;;;2.30;99.90;;;;;;5075390;28;20218;-62
2022/03/04 03:26:22;;;;;;;1.95;1.85;;;2.20;99.90;;;;;;5073887;28;20219;-63
2022/03/04 03:28:48;;;;;;;1.80;1.70;;;2.10;99.90;;;;;;5073511;28;20213;-63
2022/03/04 03:31:17;;;;;;;1.90;1.80;;;2.00;99.90;;;;;;5072871;28;20289;-65
2022/03/04 03:33:44;;;;;;;2.00;1.90;;;1.90;99.90;;;;;;5076186;28;20298;-65
2022/03/04 03:36:11;;;;;;;2.20;2.10;;;1.90;99.90;;;;;;5075124;28;20225;-63
2022/03/04 03:38:38;;;;;;;2.10;2.00;;;1.80;99.90;;;;;;5074333;28;20231;-63
2022/03/04 03:41:05;;;;;;;1.97;1.87;;;1.80;99.90;;;;;;5073383;28;20721;-64
2022/03/04 03:43:32;;;;;;;2.08;1.98;;;1.60;99.90;;;;;;5073777;28;20665;-64
2022/03/04 03:45:59;;;;;;;2.20;2.10;;;1.60;99.90;;;;;;5073251;28;20709;-63
2022/03/04 03:48:27;;;;;;;1.90;1.80;;;1.50;99.90;;;;;;5074255;28;20814;-64
2022/03/04 03:50:54;;;;;;;2.10;2.00;;;1.40;99.90;;;;;;5074126;28;20290;-64
2022/03/04 03:53:20;;;;;;;2.10;2.00;;;1.30;99.90;;;;;;5074251;28;20389;-62
2022/03/04 03:55:47;;;;;;;2.20;2.10;;;1.30;99.90;;;;;;5074025;28;20703;-64
2022/03/04 03:58:15;;;;;;;2.00;1.90;;;1.30;99.90;;;;;;5075184;28;20230;-64
2022/03/04 04:00:42;;;;;;;2.10;2.00;;;1.20;99.90;;;;;;5074425;28;20207;-63
2022/03/04 04:03:09;;;;;;;2.00;1.90;;;1.20;99.90;;;;;;5074254;28;20223;-63
2022/03/04 04:05:37;;;;;;;2.20;2.10;;;1.20;99.90;;;;;;5074461;28;20227;-65
2022/03/04 04:08:05;;;;;;;2.10;2.00;;;1.20;99.90;;;;;;5073932;28;20246;-64
2022/03/04 04:10:32;;;;;;;2.10;2.00;;;1.10;99.90;;;;;;5073749;28;20235;-63
2022/03/04 04:12:59;;;;;;;1.90;1.80;;;1.10;99.90;;;;;;5073424;28;20288;-64
2022/03/04 04:15:26;;;;;;;2.10;2.00;;;1.10;99.90;;;;;;5073787;28;20692;-63
2022/03/04 04:17:53;;;;;;;2.33;2.23;;;1.10;99.90;;;;;;5074259;28;20633;-65
2022/03/04 04:20:20;;;;;;;2.30;2.20;;;1.10;99.90;;;;;;5074201;28;20207;-64
2022/03/04 04:22:48;;;;;;;2.00;1.90;;;1.10;99.90;;;;;;5073177;28;20223;-64
2022/03/04 04:25:15;;;;;;;1.70;1.60;;;1.10;99.90;;;;;;5073686;28;20234;-63
2022/03/04 04:27:42;;;;;;;1.77;1.67;;;1.10;99.90;;;;;;5072292;28;20239;-64
2022/03/04 04:30:12;;;;;;;2.05;1.95;;;1.00;99.90;;;;;;5072155;28;20293;-64
2022/03/04 04:32:38;;;;;;;1.85;1.75;;;1.00;99.90;;;;;;5072028;28;20354;-64
2022/03/04 04:35:06;;;;;;;2.15;2.05;;;1.00;99.90;;;;;;5072428;28;20234;-64
2022/03/04 04:37:33;;;;;;;2.33;2.22;;;1.00;99.90;;;;;;5072030;28;20207;-64
2022/03/04 04:40:04;;;;;;;1.92;1.83;;;0.90;99.90;;;;;;5071839;28;20707;-65
2022/03/04 04:42:31;;;;;;;2.10;2.00;;;1.00;99.90;;;;;;5073961;28;20223;-64
2022/03/04 04:44:58;;;;;;;2.22;2.13;;;1.10;99.90;;;;;;5073996;28;20616;-63
2022/03/04 04:47:26;;;;;;;2.08;1.98;;;1.20;99.90;;;;;;5074646;28;20254;-63
2022/03/04 04:49:53;;;;;;;2.17;1.88;;;1.20;99.90;;;;;;5075314;28;20234;-63
2022/03/04 04:52:20;;;;;;;1.98;1.88;;;1.20;99.90;;;;;;5078012;28;20227;-64
2022/03/04 04:54:47;;;;;;;2.10;2.00;;;1.20;99.90;;;;;;5077084;28;20199;-64
2022/03/04 04:57:16;;;;;;;2.38;2.28;;;1.20;99.90;;;;;;5085141;28;20230;-64
2022/03/04 04:59:43;;;;;;;2.25;2.15;;;1.40;99.90;;;;;;5085467;28;20260;-62
2022/03/04 05:02:09;;;;;;;2.28;2.17;;;1.40;99.90;;;;;;5081335;28;20273;-64
2022/03/04 05:04:36;;;;;;;1.90;1.80;;;1.40;99.90;;;;;;5079076;28;20246;-63
2022/03/04 05:07:04;;;;;;;1.90;1.80;;;1.40;99.90;;;;;;5072179;28;20599;-63
2022/03/04 05:09:30;;;;;;;1.92;1.83;;;1.40;99.90;;;;;;5071501;28;20231;-64
2022/03/04 05:11:57;;;;;;;2.00;1.90;;;1.30;99.90;;;;;;5071021;28;20262;-64
2022/03/04 05:14:25;;;;;;;1.98;1.88;;;1.30;99.90;;;;;;5070912;28;20246;-65
2022/03/04 05:16:52;;;;;;;2.08;1.98;;;1.40;99.90;;;;;;5071359;28;20282;-63
2022/03/04 05:19:19;;;;;;;2.03;1.93;;;1.30;99.90;;;;;;5070976;28;20250;-63
2022/03/04 05:21:46;;;;;;;2.20;2.10;;;1.30;99.90;;;;;;5070895;28;20284;-63
2022/03/04 05:24:13;;;;;;;2.00;1.90;;;1.20;99.90;;;;;;5070943;28;20389;-64
2022/03/04 05:26:41;;;;;;;1.70;1.60;;;1.20;99.90;;;;;;5071032;28;20665;-64
2022/03/04 05:29:10;;;;;;;2.13;2.03;;;1.20;99.90;;;;;;5074677;28;20299;-63
2022/03/04 05:31:39;;;;;;;2.03;1.92;;;1.10;99.90;;;;;;5083678;28;20262;-63
2022/03/04 05:34:07;;;;;;;2.10;2.00;;;1.10;99.90;;;;;;5080537;28;20704;-64
2022/03/04 05:36:34;;;;;;;2.10;2.00;;;1.20;99.90;;;;;;5070936;28;20219;-63
2022/03/04 05:39:01;;;;;;;2.17;2.08;;;1.20;99.90;;;;;;5072429;28;20203;-64
2022/03/04 05:41:28;;;;;;;2.30;2.20;;;1.10;99.90;;;;;;5071734;28;20314;-65
2022/03/04 05:43:55;;;;;;;1.90;1.80;;;1.10;99.90;;;;;;5070887;28;20242;-65
2022/03/04 05:46:22;;;;;;;1.98;1.88;;;1.10;99.90;;;;;;5070290;28;20219;-63
2022/03/04 05:48:50;;;;;;;2.13;2.03;;;1.10;99.90;;;;;;5068005;28;20399;-64
2022/03/04 05:51:18;;;;;;;2.05;1.95;;;1.10;99.90;;;;;;5070501;28;20526;-65
2022/03/04 05:53:45;;;;;;;2.00;1.90;;;1.10;99.90;;;;;;5068718;28;20211;-64
2022/03/04 05:56:12;;;;;;;2.10;2.00;;;1.10;99.90;;;;;;5070870;28;20208;-65
2022/03/04 05:58:39;;;;;;;2.15;2.05;;;1.00;99.90;;;;;;5067357;28;20290;-64
2022/03/04 06:01:07;;;;;;;2.13;2.03;;;1.10;99.90;;;;;;5070313;28;20458;-63
2022/03/04 06:03:34;;;;;;;2.00;1.90;;;1.00;99.90;;;;;;5078670;28;20217;-65
2022/03/04 06:06:03;;;;;;;2.00;1.90;;;1.00;99.90;;;;;;5070672;28;20546;-64
2022/03/04 06:08:30;;;;;;;2.28;2.17;;;1.00;99.90;;;;;;5068837;28;20217;-64
2022/03/04 06:10:57;;;;;;;1.95;1.85;;;1.10;99.90;;;;;;5070751;28;20202;-64
2022/03/04 06:13:24;;;;;;;2.10;2.00;;;1.10;99.90;;;;;;5068329;28;20286;-65
2022/03/04 06:15:51;;;;;;;2.13;2.03;;;1.10;99.90;;;;;;5066830;28;20302;-63
2022/03/04 06:18:18;;;;;;;2.33;2.23;;;1.10;99.90;;;;;;5065186;28;20208;-63
2022/03/04 06:20:45;;;;;;;2.10;2.00;;;1.10;99.90;;;;;;5073701;28;20294;-63
2022/03/04 06:23:14;;;;;;;2.10;2.00;;;1.10;99.90;;;;;;5064531;28;20223;-64
2022/03/04 06:25:41;;;;;;;2.60;2.40;;;1.10;99.90;;;;;;5076971;28;20884;-64
2022/03/04 06:28:08;;;;;;;2.47;2.30;;;1.10;99.90;;;;;;5076469;28;20664;-64
2022/03/04 06:30:37;;;;;;;2.20;2.10;;;1.10;99.90;;;;;;5062559;28;20292;-63
2022/03/04 06:35:50;;;;;;;2.13;2.03;;;1.20;99.90;;;;;;5073047;28;20279;-63
2022/03/04 06:38:18;;;;;;;2.10;2.00;;;1.20;99.90;;;;;;5074709;28;20235;-63
2022/03/04 06:40:46;;;;;;;2.30;2.20;;;1.20;99.90;;;;;;5067593;28;21124;-65
2022/03/04 06:43:14;;;;;;;2.03;1.93;;;1.30;99.90;;;;;;5068619;28;20305;-63
2022/03/04 06:45:42;;;;;;;2.33;2.23;;;1.20;99.90;;;;;;5067266;28;20302;-64
2022/03/04 06:48:09;;;;;;;2.60;2.40;;;1.20;99.90;;;;;;5084036;28;20218;-65
2022/03/04 06:50:36;;;;;;;2.40;2.30;;;1.20;99.90;;;;;;5080190;28;20240;-62
2022/03/04 06:53:03;;;;;;;2.40;2.20;;;1.30;99.90;;;;;;5079499;28;20247;-64
2022/03/04 06:55:32;;;;;;;2.27;2.17;;;1.30;99.90;;;;;;5079959;28;20208;-65
2022/03/04 06:57:59;;;;;;;3.80;2.70;;;1.40;99.90;;;;;;5079553;28;20222;-65
2022/03/04 07:00:27;;;;;;;2.33;2.22;;;1.40;99.90;;;;;;5080878;28;20282;-63
2022/03/04 07:02:54;;;;;;;2.40;2.30;;;1.50;99.90;;;;;;5078461;28;20808;-64
2022/03/04 07:05:22;;;;;;;2.33;2.23;;;1.50;99.90;;;;;;5076416;28;20564;-64
2022/03/04 07:07:49;;;;;;;2.40;2.30;;;1.50;99.90;;;;;;5071011;28;20215;-64
2022/03/04 07:10:17;;;;;;;2.30;2.20;;;1.60;99.90;;;;;;5086767;28;20198;-64
2022/03/04 07:12:45;;;;;;;2.20;2.10;;;1.70;99.90;;;;;;5085087;28;20301;-63
2022/03/04 07:15:13;;;;;;;2.70;2.50;;;1.70;99.90;;;;;;5081875;28;20591;-66
2022/03/04 07:17:41;;;;;;;2.33;2.22;;;1.80;99.90;;;;;;5076385;28;20242;-65
2022/03/04 07:20:09;;;;;;;2.60;2.50;;;1.90;99.90;;;;;;5074860;28;20206;-65
2022/03/04 07:22:37;;;;;;;2.20;2.10;;;1.90;99.90;;;;;;5077003;28;20237;-63
2022/03/04 07:25:04;;;;;;;2.25;2.15;;;2.00;99.90;;;;;;5074594;28;20202;-63
2022/03/04 07:27:31;;;;;;;2.55;2.30;;;2.10;99.90;;;;;;5084202;28;20405;-62
2022/03/04 07:29:59;;;;;;;2.40;2.30;;;2.20;99.90;;;;;;5079463;28;20613;-63
2022/03/04 07:32:26;;;;;;;2.38;2.28;;;2.30;99.90;;;;;;5087153;28;20231;-64
2022/03/04 07:34:53;;;;;;;2.40;2.30;;;2.40;99.90;;;;;;5078699;28;20222;-63
2022/03/04 07:37:20;;;;;;;2.40;2.30;;;2.50;99.90;;;;;;5077568;28;20671;-63
2022/03/04 07:39:48;;;;;;;3.10;2.90;;;2.60;99.90;;;;;;5084546;28;20206;-63
2022/03/04 07:42:14;;;;;;;3.30;3.10;;;2.60;99.90;;;;;;5076397;28;20219;-63
2022/03/04 07:44:41;;;;;;;3.08;2.88;;;2.50;99.90;;;;;;5088019;28;20202;-63
2022/03/04 07:47:10;;;;;;;3.53;3.20;;;2.50;99.90;;;;;;5081135;28;20314;-63
2022/03/04 07:49:36;;;;;;;3.30;3.10;;;2.40;99.90;;;;;;5077388;28;20221;-63
2022/03/04 07:52:04;;;;;;;3.22;3.00;;;2.40;99.90;;;;;;5081361;28;20665;-64
2022/03/04 07:54:31;;;;;;;3.30;3.03;;;2.40;99.90;;;;;;5077416;28;20919;-63
2022/03/04 07:56:58;;;;;;;3.40;3.20;;;2.50;99.90;;;;;;5083097;28;20282;-62
2022/03/04 07:59:25;;;;;;;3.60;3.30;;;2.50;99.90;;;;;;5078168;28;20573;-64
2022/03/04 08:01:52;;;;;;;3.17;2.97;;;2.50;99.90;;;;;;5078829;28;20628;-64
2022/03/04 08:04:20;;;;;;;3.40;3.20;;;2.60;99.90;;;;;;5083750;28;20194;-64
2022/03/04 08:06:47;;;;;;;3.05;2.88;;;2.60;99.90;;;;;;5079709;28;20266;-63
2022/03/04 08:09:14;;;;;;;3.30;3.10;;;2.70;99.90;;;;;;5076270;28;20203;-62
2022/03/04 08:11:41;;;;;;;3.50;3.30;;;2.80;99.90;;;;;;5078007;28;20219;-64
2022/03/04 08:14:07;;;;;;;3.60;3.40;;;2.90;99.90;;;;;;5084179;28;20213;-63
2022/03/04 08:16:35;;;;;;;3.28;3.08;;;2.80;99.90;;;;;;5090409;28;20200;-63
2022/03/04 08:19:03;;;;;;;3.20;3.00;;;2.90;99.90;;;;;;5087748;28;20211;-63
2022/03/04 08:21:31;;;;;;;3.30;3.10;;;2.90;99.90;;;;;;5080235;28;20286;-63
2022/03/04 08:23:58;;;;;;;3.30;3.10;;;2.90;99.90;;;;;;5076094;28;20218;-63
2022/03/04 08:26:25;;;;;;;3.30;3.10;;;3.10;99.90;;;;;;5076009;28;20201;-64
2022/03/04 08:28:52;;;;;;;3.93;3.60;;;3.20;99.90;;;;;;5076534;28;20222;-62
2022/03/04 08:31:19;;;;;;;3.30;3.10;;;3.20;99.90;;;;;;5074141;28;20803;-63
2022/03/04 08:33:47;;;;;;;3.63;3.40;;;3.20;99.90;;;;;;5088752;28;20297;-62
2022/03/04 08:36:14;;;;;;;3.30;3.10;;;3.20;99.90;;;;;;5074975;28;20238;-64
2022/03/04 08:38:42;;;;;;;3.60;3.40;;;3.30;99.90;;;;;;5072244;28;20203;-63
2022/03/04 08:41:09;;;;;;;3.43;3.23;;;3.40;99.90;;;;;;5076575;28;20278;-63
2022/03/04 08:43:36;;;;;;;3.38;3.17;;;3.60;99.90;;;;;;5076895;28;20662;-64
2022/03/04 08:46:04;;;;;;;3.83;3.63;;;3.70;99.90;;;;;;5080202;28;20252;-62
2022/03/04 08:48:30;;;;;;;3.53;3.22;;;3.90;99.90;;;;;;5076293;28;20249;-64
2022/03/04 08:50:57;;;;;;;3.40;3.20;;;4.00;99.90;;;;;;5072524;28;20331;-64
2022/03/04 08:53:26;;;;;;;3.50;3.30;;;4.10;99.90;;;;;;5079331;28;20721;-63
2022/03/04 08:55:55;;;;;;;3.83;3.53;;;4.20;99.90;;;;;;5084135;28;20217;-63
2022/03/04 08:58:21;;;;;;;3.83;3.63;;;4.20;99.90;;;;;;5097650;28;20286;-63
2022/03/04 09:00:48;;;;;;;3.65;3.45;;;4.20;99.90;;;;;;5091575;28;20242;-61
2022/03/04 09:03:16;;;;;;;3.78;3.58;;;4.30;99.90;;;;;;5087092;28;20290;-63
2022/03/04 09:05:43;;;;;;;3.67;3.47;;;4.50;99.90;;;;;;5077173;28;21288;-65
2022/03/04 09:08:10;;;;;;;3.60;3.40;;;4.60;99.90;;;;;;5070776;28;20351;-64
2022/03/04 09:10:37;;;;;;;3.50;3.30;;;4.60;99.90;;;;;;5076018;28;20221;-64
2022/03/04 09:13:05;;;;;;;4.05;3.65;;;4.80;99.90;;;;;;5076553;28;20314;-64
2022/03/04 09:15:33;;;;;;;3.47;3.27;;;4.90;99.90;;;;;;5070550;28;20207;-63
2022/03/04 09:18:00;;;;;;;3.80;3.60;;;4.90;99.90;;;;;;5071189;28;20230;-63
2022/03/04 09:20:27;;;;;;;3.53;3.33;;;5.00;99.90;;;;;;5070628;28;20207;-63
2022/03/04 09:22:55;;;;;;;3.77;3.57;;;5.10;99.90;;;;;;5071038;28;20266;-64
2022/03/04 09:25:22;;;;;;;3.30;3.10;;;5.20;99.90;;;;;;5071474;28;20263;-63
2022/03/04 09:27:50;;;;;;;3.55;3.25;;;5.20;99.90;;;;;;5070523;28;20218;-64
2022/03/04 09:30:18;;;;;;;3.35;3.05;;;5.30;99.90;;;;;;5071107;28;20207;-64
2022/03/04 09:32:46;;;;;;;3.50;3.30;;;5.40;99.90;;;;;;5071156;28;20249;-63
2022/03/04 09:35:13;;;;;;;3.70;3.47;;;5.60;99.90;;;;;;5073283;28;20256;-63
2022/03/04 09:37:40;;;;;;;3.50;3.30;;;5.70;99.90;;;;;;5079920;28;20203;-65
2022/03/04 09:40:09;;;;;;;3.60;3.40;;;5.80;99.90;;;;;;5076895;28;20292;-63
2022/03/04 09:42:36;;;;;;;3.70;3.40;;;5.90;99.90;;;;;;5082676;28;20222;-63
2022/03/04 09:45:05;;;;;;;3.50;3.30;;;6.00;99.90;;;;;;5077673;28;20210;-65
2022/03/04 09:47:33;;;;;;;3.58;3.38;;;6.10;99.90;;;;;;5074904;28;20314;-64
2022/03/04 09:50:02;;;;;;;3.75;3.45;;;6.20;99.90;;;;;;5071997;28;20203;-64
2022/03/04 09:52:30;;;;;;;3.40;3.20;;;6.20;99.90;;;;;;5072548;28;20709;-62
2022/03/04 09:54:58;;;;;;;3.42;3.22;;;6.30;99.90;;;;;;5071655;28;20214;-63
2022/03/04 09:57:25;;;;;;;3.63;3.40;;;6.40;99.90;;;;;;5072098;28;20199;-63
2022/03/04 09:59:52;;;;;;;3.38;3.17;;;6.50;99.90;;;;;;5088862;28;20207;-63
2022/03/04 10:02:19;;;;;;;3.50;3.30;;;6.70;99.90;;;;;;5084507;28;20250;-63
2022/03/04 10:04:58;;;;;;;3.60;3.40;;;6.70;99.90;;;;;;5080475;28;20222;-62
2022/03/04 10:07:25;;;;;;;3.90;3.70;;;6.80;99.90;;;;;;5075478;28;20218;-63
2022/03/04 10:09:52;;;;;;;4.20;3.90;;;7.10;99.90;;;;;;5075466;28;20262;-65
2022/03/04 10:12:20;;;;;;;3.70;3.50;;;7.10;99.90;;;;;;5079736;28;20251;-64
2022/03/04 10:14:59;;;;;;;3.88;3.58;;;7.20;99.90;;;;;;5082766;28;20203;-64
2022/03/04 10:17:27;;;;;;;3.87;3.67;;;7.40;99.90;;;;;;5074260;28;20195;-64
2022/03/04 10:19:56;;;;;;;3.50;3.30;;;7.50;99.90;;;;;;5074714;28;20210;-63
2022/03/04 10:22:24;;;;;;;3.57;3.37;;;7.70;99.90;;;;;;5074828;28;20318;-65
2022/03/04 10:24:52;;;;;;;3.60;3.30;;;7.60;99.90;;;;;;5075147;28;20649;-63
2022/03/04 10:27:19;;;;;;;3.27;3.07;;;7.60;99.90;;;;;;5075444;28;20290;-63
2022/03/04 10:29:47;;;;;;;3.50;3.20;;;7.70;99.90;;;;;;5076086;28;20214;-63
2022/03/04 10:32:19;;;;;;;3.30;3.10;;;7.70;99.90;;;;;;5075188;28;20258;-62
2022/03/04 10:34:49;;;;;;;2.90;2.80;;;7.90;99.90;;;;;;5074556;28;20214;-64
2022/03/04 10:37:19;;;;;;;3.00;2.90;;;8.00;99.90;;;;;;5075041;28;20723;-63
2022/03/04 10:40:01;;;;;;;3.50;3.30;;;8.00;99.90;;;;;;5076088;28;20287;-65
2022/03/04 10:42:39;;;;;;;3.60;3.40;;;8.20;99.90;;;;;;5075167;28;20258;-63
2022/03/04 10:45:07;;;;;;;3.65;3.45;;;8.30;99.90;;;;;;5074014;28;20217;-64
2022/03/04 10:47:42;;;;;;;3.60;3.40;;;8.20;99.90;;;;;;5074208;28;20777;-63
2022/03/04 10:50:09;;;;;;;3.83;3.63;;;8.10;99.90;;;;;;5074263;28;20286;-65
2022/03/04 10:52:52;;;;;;;3.60;3.40;;;8.30;99.90;;;;;;5078134;28;20311;-63
2022/03/04 10:55:36;;;;;;;3.57;3.37;;;8.40;99.90;;;;;;5083165;28;20199;-63
2022/03/04 10:58:07;;;;;;;3.70;3.50;;;8.40;99.90;;;;;;5067222;28;20553;-65
2022/03/04 11:00:36;;;;;;;3.70;3.50;;;8.50;99.90;;;;;;5074173;28;20218;-63
2022/03/04 11:03:03;;;;;;;3.58;3.38;;;8.60;99.90;;;;;;5073728;28;20235;-62
2022/03/04 11:05:30;;;;;;;3.97;3.67;;;8.70;99.90;;;;;;5073488;28;20199;-64
2022/03/04 11:07:59;;;;;;;3.27;3.17;;;8.70;99.90;;;;;;5073250;28;20318;-63
2022/03/04 11:10:26;;;;;;;3.90;3.70;;;8.90;99.90;;;;;;5071892;28;20626;-65
2022/03/04 11:12:54;;;;;;;4.00;3.70;;;9.10;99.90;;;;;;5080633;28;20237;-64
2022/03/04 11:15:24;;;;;;;3.93;3.73;;;9.10;99.90;;;;;;5084262;28;20203;-65
2022/03/04 11:17:52;;;;;;;4.00;3.80;;;9.10;99.90;;;;;;5081272;28;20207;-64
2022/03/04 11:20:20;;;;;;;4.10;3.90;;;9.20;99.90;;;;;;5080271;28;20195;-64
2022/03/04 11:22:49;;;;;;;3.63;3.43;;;9.30;99.90;;;;;;5075800;28;20302;-63
2022/03/04 11:25:18;;;;;;;3.60;3.40;;;9.20;99.90;;;;;;5069822;28;20286;-67
2022/03/04 11:27:46;;;;;;;4.15;3.90;;;9.30;99.90;;;;;;5074126;28;20269;-63
2022/03/04 11:30:35;;;;;;;3.80;3.60;;;9.40;99.90;;;;;;5074225;28;20295;-64
2022/03/04 11:33:06;;;;;;;3.90;3.60;;;9.70;99.90;;;;;;5076655;28;20318;-63
2022/03/04 11:35:56;;;;;;;4.00;3.80;;;9.60;99.90;;;;;;5085067;22;20222;-66
2022/03/04 11:39:06;;;;;;;4.07;3.77;;;9.70;99.90;;;;;;5046117;28;20235;-67
2022/03/04 11:41:37;;;;;;;4.00;3.70;;;9.70;99.90;;;;;;5043924;28;20204;-67
2022/03/04 11:44:13;;;;;;;4.00;3.80;;;9.60;99.90;;;;;;5055449;28;20680;-66
2022/03/04 11:46:51;;;;;;;4.47;4.20;;;9.60;99.90;;;;;;5042736;28;20227;-66
2022/03/04 11:49:30;;;;;;;4.07;3.87;;;9.70;99.90;;;;;;5032854;28;20299;-66
2022/03/04 11:52:21;;;;;;;4.27;4.03;;;9.80;99.90;;;;;;5034595;28;20212;-65
2022/03/04 11:55:21;;;;;;;4.10;3.90;;;9.90;99.90;;;;;;5038213;28;20197;-67
2022/03/04 11:57:57;;;;;;;4.00;3.80;;;9.90;99.90;;;;;;5034360;28;20200;-65
2022/03/04 12:00:35;;;;;;;3.97;3.77;;;10.00;99.90;;;;;;5036861;28;20224;-67
2022/03/04 12:03:15;;;;;;;3.80;3.50;;;10.10;99.90;;;;;;5034119;28;20243;-66
2022/03/04 12:05:50;;;;;;;3.90;3.70;;;10.20;99.90;;;;;;5039421;28;20642;-65
2022/03/04 12:08:18;;;;;;;3.85;3.63;;;10.30;99.90;;;;;;5035521;28;20694;-67
2022/03/04 12:10:48;;;;;;;4.10;3.80;;;10.10;99.90;;;;;;5032274;28;20243;-67
2022/03/04 12:13:19;;;;;;;4.53;4.22;;;10.20;99.90;;;;;;5031643;28;20283;-66
2022/03/04 12:15:51;;;;;;;4.30;4.10;;;10.10;99.90;;;;;;5033931;28;20256;-67
2022/03/04 12:18:25;;;;;;;4.00;3.70;;;10.20;99.90;;;;;;5032636;28;20728;-66
2022/03/04 12:21:03;;;;;;;3.90;3.70;;;10.20;99.90;;;;;;5037723;28;20201;-67
2022/03/04 12:23:33;;;;;;;3.40;3.20;;;10.30;99.90;;;;;;5047030;28;20227;-66
2022/03/04 12:26:20;;;;;;;4.20;3.90;;;10.40;99.90;;;;;;5033432;28;20279;-66
2022/03/04 12:28:52;;;;;;;4.20;3.90;;;10.40;99.90;;;;;;5032841;28;20271;-65
2022/03/04 12:31:25;;;;;;;3.67;3.47;;;10.50;99.90;;;;;;5030789;28;20249;-66
2022/03/04 12:33:56;;;;;;;4.20;4.00;;;10.60;99.90;;;;;;5031851;28;20698;-67
2022/03/04 12:36:25;;;;;;;4.10;3.80;;;10.60;99.90;;;;;;5026791;28;20876;-66
2022/03/04 12:38:54;;;;;;;4.00;3.80;;;10.70;99.90;;;;;;5032120;28;20232;-65
2022/03/04 12:41:22;;;;;;;4.10;3.90;;;10.70;99.90;;;;;;5035319;28;20209;-66
2022/03/04 12:43:52;;;;;;;4.05;3.75;;;10.70;99.90;;;;;;5043562;28;20255;-66
2022/03/04 12:46:22;;;;;;;3.53;3.33;;;10.70;99.90;;;;;;5032982;28;20225;-65
2022/03/04 12:48:49;;;;;;;3.73;3.43;;;10.70;99.90;;;;;;5037176;28;20275;-66
2022/03/04 12:51:21;;;;;;;4.10;3.90;;;10.70;99.90;;;;;;5033335;28;20205;-66
2022/03/04 12:53:49;;;;;;;4.28;4.07;;;10.90;99.90;;;;;;5032650;28;20264;-67
2022/03/04 12:56:17;;;;;;;3.72;3.53;;;10.90;99.90;;;;;;5031610;28;20832;-66
2022/03/04 12:58:46;;;;;;;3.80;3.60;;;11.10;99.90;;;;;;5031106;28;20197;-65
2022/03/04 13:01:17;;;;;;;3.90;3.60;;;11.20;99.90;;;;;;5031620;28;20645;-65
2022/03/04 13:03:45;;;;;;;3.90;3.70;;;11.10;99.90;;;;;;5031543;28;20671;-67